Terminal Aerodrome Forecast
Issued by NWS

Home | Current Version | Previous Version | Text Only | Print | Product List | Glossary On
Versions: 1 2 3 4 5 6 7 8 9 10 11 12 13
000
FTUS43 KTOP 291100
TAFFOE
TAF
KFOE 291130Z 2912/3012 10006KT P6SM BKN120
     FM291600 05012KT P6SM SCT040 BKN100
     FM300200 03017KT P6SM BKN030 OVC050
     FM300500 03013KT 6SM -SN BR BKN011 OVC030=

USA.gov is the U.S. government's official web portal to all federal, state and local government web resources and services.